Time;durP1;ratioP1;P1;durP2;ratioP2;P2;SDS_P1;SDS_P2;PMS_P1;PMS_P2;Temp;Humidity;BMP_temperature;BMP_pressure;BME280_temperature;BME280_humidity;BME280_pressure;Samples;Min_cycle;Max_cycle;Signal;HPM_P1;HPM_P2
2022/07/13 00:01:17;;;;;;;3.35;2.88;;;;;;;25.20;49.10;102110.13;4717419;30;20049;-90
2022/07/13 00:03:42;;;;;;;3.15;2.85;;;;;;;25.19;49.11;102114.66;4723414;30;20056;-89
2022/07/13 00:06:08;;;;;;;3.33;3.00;;;;;;;25.17;49.01;102113.19;4720961;30;20469;-89
2022/07/13 00:08:33;;;;;;;3.55;3.00;;;;;;;25.19;49.06;102113.81;4736593;30;20073;-89
2022/07/13 00:10:59;;;;;;;3.13;2.72;;;;;;;25.19;48.81;102111.97;4719110;30;20044;-89
2022/07/13 00:13:25;;;;;;;3.20;2.90;;;;;;;25.22;48.87;102108.94;4721688;30;20125;-89
2022/07/13 00:15:51;;;;;;;3.22;2.83;;;;;;;25.19;49.00;102113.81;4722237;30;20151;-90
2022/07/13 00:18:16;;;;;;;3.10;2.80;;;;;;;25.18;48.71;102106.84;4723249;30;20315;-89
2022/07/13 00:20:43;;;;;;;3.05;2.75;;;;;;;25.17;48.95;102099.84;4710097;30;20401;-89
2022/07/13 00:23:09;;;;;;;3.55;2.80;;;;;;;25.24;49.08;102106.91;4727180;30;20049;-89
2022/07/13 00:25:34;;;;;;;3.20;2.90;;;;;;;25.26;49.07;102115.56;4720702;30;20118;-89
2022/07/13 00:27:59;;;;;;;2.85;2.65;;;;;;;25.19;49.07;102108.50;4709408;30;20720;-89
2022/07/13 00:30:25;;;;;;;3.38;3.08;;;;;;;25.21;48.77;102101.13;4725081;30;20040;-90
2022/07/13 00:32:51;;;;;;;3.33;2.70;;;;;;;25.21;49.08;102096.63;4722141;30;20554;-91
2022/07/13 00:35:16;;;;;;;3.05;2.75;;;;;;;25.18;48.86;102074.84;4724292;30;20045;-89
2022/07/13 00:37:43;;;;;;;3.28;2.97;;;;;;;25.19;48.75;102072.00;4723276;30;20517;-90
2022/07/13 00:40:09;;;;;;;3.30;2.72;;;;;;;25.19;48.96;102077.31;4724587;30;20098;-89
2022/07/13 00:42:35;;;;;;;3.45;2.95;;;;;;;25.18;49.07;102074.84;4723547;30;20084;-90
2022/07/13 00:45:00;;;;;;;4.47;2.95;;;;;;;25.27;48.88;102076.38;4725724;30;20068;-90
2022/07/13 00:47:32;;;;;;;2.97;2.67;;;;;;;25.21;49.03;102082.47;4723055;30;20111;-89
2022/07/13 00:50:00;;;;;;;4.93;2.90;;;;;;;25.21;48.74;102071.81;4724079;30;20107;-89
2022/07/13 00:52:26;;;;;;;3.40;2.80;;;;;;;25.22;48.97;102070.78;4724033;30;20048;-89
2022/07/13 00:54:52;;;;;;;4.15;2.60;;;;;;;25.21;49.04;102069.97;4720749;30;20041;-88
2022/07/13 00:57:18;;;;;;;3.25;2.78;;;;;;;25.20;49.04;102060.31;4722219;30;20047;-89
2022/07/13 00:59:44;;;;;;;3.10;2.80;;;;;;;25.22;48.75;102066.28;4725026;30;20671;-89
2022/07/13 01:02:09;;;;;;;3.20;2.90;;;;;;;25.17;49.01;102050.03;4723603;30;20063;-89
2022/07/13 01:04:35;;;;;;;3.50;2.80;;;;;;;25.17;49.00;102051.88;4725079;30;20075;-89
2022/07/13 01:07:01;;;;;;;2.92;2.65;;;;;;;25.21;49.04;102050.47;4725318;30;20524;-89
2022/07/13 01:09:26;;;;;;;3.20;2.90;;;;;;;25.22;48.95;102047.63;4719386;30;20064;-89
2022/07/13 01:11:53;;;;;;;3.78;2.80;;;;;;;25.21;49.12;102045.16;4702492;30;20044;-88
2022/07/13 01:14:18;;;;;;;2.85;2.65;;;;;;;25.18;49.03;102038.34;4724887;30;20062;-89
2022/07/13 01:16:44;;;;;;;4.07;2.90;;;;;;;25.24;48.88;102034.94;4718524;30;20044;-89
2022/07/13 01:19:12;;;;;;;3.05;2.80;;;;;;;25.19;48.76;102023.19;4724618;30;20044;-89
2022/07/13 01:21:41;;;;;;;3.10;2.80;;;;;;;25.20;49.19;102025.66;4724663;30;20048;-90
2022/07/13 01:24:07;;;;;;;3.30;2.92;;;;;;;25.22;48.92;102025.47;4726598;30;20043;-90
2022/07/13 01:26:33;;;;;;;3.00;2.70;;;;;;;25.14;48.91;102002.44;4721126;30;20048;-89
2022/07/13 01:28:59;;;;;;;2.92;2.70;;;;;;;25.19;49.00;102012.53;4721634;30;20131;-89
2022/07/13 01:31:44;;;;;;;3.05;2.78;;;;;;;25.18;48.77;102011.69;4722742;30;20400;-89
2022/07/13 01:34:10;;;;;;;3.10;2.80;;;;;;;25.17;48.76;102006.56;4722979;30;20165;-89
2022/07/13 01:36:36;;;;;;;3.10;2.80;;;;;;;25.20;48.77;102015.00;4725670;30;20469;-90
2022/07/13 01:39:03;;;;;;;3.40;2.70;;;;;;;25.21;48.95;102010.50;4723413;30;20052;-89
2022/07/13 01:41:29;;;;;;;3.28;2.97;;;;;;;25.14;48.77;102005.09;4721473;30;20068;-89
2022/07/13 01:43:59;;;;;;;3.10;2.80;;;;;;;25.20;48.82;101999.00;4706861;30;20045;-89
2022/07/13 01:46:27;;;;;;;4.03;2.65;;;;;;;25.25;48.84;102006.44;4721045;30;20105;-89
2022/07/13 01:48:56;;;;;;;3.00;2.70;;;;;;;25.19;48.68;102010.69;4722863;30;20055;-89
2022/07/13 01:51:22;;;;;;;4.03;3.03;;;;;;;25.23;48.51;101993.28;4720589;30;20048;-89
2022/07/13 01:53:47;;;;;;;3.95;3.13;;;;;;;25.21;48.59;101997.16;4722899;30;20044;-89
2022/07/13 01:56:13;;;;;;;3.47;3.17;;;;;;;25.17;48.63;101994.06;4723285;30;20044;-89
2022/07/13 01:58:39;;;;;;;3.40;3.10;;;;;;;25.21;48.57;101989.16;4720806;30;20416;-89
2022/07/13 02:01:05;;;;;;;3.20;2.90;;;;;;;25.16;48.74;101979.06;4722529;30;20139;-89
2022/07/13 02:03:32;;;;;;;3.10;2.80;;;;;;;25.15;48.83;101973.94;4725104;30;20043;-90
2022/07/13 02:05:58;;;;;;;2.80;2.60;;;;;;;25.15;48.85;101980.09;4725199;30;20040;-89
2022/07/13 02:08:27;;;;;;;2.90;2.65;;;;;;;25.17;48.89;101971.91;4734641;30;20041;-90
2022/07/13 02:10:53;;;;;;;3.42;3.13;;;;;;;25.11;48.90;101965.47;4723776;30;20136;-90
2022/07/13 02:13:21;;;;;;;3.30;3.00;;;;;;;25.17;48.66;101961.25;4720403;30;20061;-90
2022/07/13 02:15:47;;;;;;;3.38;3.08;;;;;;;25.17;49.04;101937.25;4718060;30;20057;-89
2022/07/13 02:18:13;;;;;;;3.60;3.30;;;;;;;25.10;48.92;101915.84;4720487;30;20136;-88
2022/07/13 02:20:39;;;;;;;3.45;3.10;;;;;;;25.13;48.88;101949.28;4721335;30;20147;-89
2022/07/13 02:23:05;;;;;;;4.68;3.28;;;;;;;25.18;48.89;101968.22;4707951;30;20064;-88
2022/07/13 02:25:32;;;;;;;3.30;3.00;;;;;;;25.20;48.47;101964.34;4721302;30;20067;-89
2022/07/13 02:27:58;;;;;;;3.60;3.13;;;;;;;25.20;48.57;101972.34;4721152;30;20037;-89
2022/07/13 02:30:23;;;;;;;3.22;2.90;;;;;;;25.14;48.75;101973.13;4707158;30;20048;-88
2022/07/13 02:32:50;;;;;;;3.90;3.20;;;;;;;25.18;48.74;101970.91;4722030;30;20119;-89
2022/07/13 02:35:16;;;;;;;4.35;3.10;;;;;;;25.16;48.61;101964.94;4724680;30;20127;-89
2022/07/13 02:37:42;;;;;;;3.20;2.90;;;;;;;25.12;48.70;101972.44;4720404;30;20090;-89
2022/07/13 02:40:12;;;;;;;4.47;3.15;;;;;;;25.13;48.74;101967.94;4725604;30;20043;-89
2022/07/13 02:42:37;;;;;;;3.60;3.30;;;;;;;25.17;48.85;101966.56;4723800;30;20501;-89
2022/07/13 02:45:05;;;;;;;4.15;3.25;;;;;;;25.14;49.06;101957.13;4721922;30;20040;-89
2022/07/13 02:47:31;;;;;;;3.30;3.00;;;;;;;25.16;48.48;101956.94;4721790;30;20032;-89
2022/07/13 02:49:59;;;;;;;3.42;3.13;;;;;;;25.20;48.72;101956.34;4722103;30;20051;-88
2022/07/13 02:52:24;;;;;;;3.53;3.17;;;;;;;25.15;48.46;101964.09;4722391;30;20741;-88
2022/07/13 02:54:50;;;;;;;3.50;3.20;;;;;;;25.19;48.45;101962.72;4720201;30;20083;-89
2022/07/13 02:57:16;;;;;;;3.65;3.30;;;;;;;25.14;48.55;101945.63;4722554;30;20413;-88
2022/07/13 02:59:44;;;;;;;3.88;3.47;;;;;;;25.17;48.50;101935.41;4708192;30;20664;-88
2022/07/13 03:02:10;;;;;;;3.80;3.50;;;;;;;25.15;48.63;101937.44;4721789;30;20131;-88
2022/07/13 03:04:36;;;;;;;3.50;3.20;;;;;;;25.13;48.68;101931.44;4738093;30;20045;-89
2022/07/13 03:07:02;;;;;;;4.30;3.58;;;;;;;25.14;48.51;101927.81;4724631;30;20060;-89
2022/07/13 03:09:30;;;;;;;3.55;3.25;;;;;;;25.12;48.51;101940.47;4708600;30;20056;-89
2022/07/13 03:11:56;;;;;;;4.10;3.60;;;;;;;25.16;48.58;101932.94;4721442;30;20075;-89
2022/07/13 03:14:21;;;;;;;3.78;3.40;;;;;;;25.17;48.57;101930.09;4716676;30;20053;-89
2022/07/13 03:16:47;;;;;;;3.47;3.15;;;;;;;25.09;48.81;101932.84;4715819;30;20107;-89
2022/07/13 03:19:13;;;;;;;3.83;3.42;;;;;;;25.15;48.44;101937.44;4723999;30;20059;-90
2022/07/13 03:21:39;;;;;;;4.00;3.20;;;;;;;25.11;48.65;101924.66;4719811;30;20126;-89
2022/07/13 03:24:06;;;;;;;4.03;3.63;;;;;;;25.13;48.62;101923.44;4722634;30;20052;-89
2022/07/13 03:26:31;;;;;;;4.05;3.65;;;;;;;25.14;48.93;101934.97;4736071;30;20124;-90
2022/07/13 03:28:57;;;;;;;4.57;3.80;;;;;;;25.10;48.63;101929.16;4724315;30;20112;-89
2022/07/13 03:31:23;;;;;;;3.40;3.10;;;;;;;25.06;48.68;101913.75;4712236;30;20056;-89
2022/07/13 03:33:49;;;;;;;3.90;3.53;;;;;;;25.06;48.63;101925.22;4708452;30;20052;-89
2022/07/13 03:36:15;;;;;;;6.68;4.07;;;;;;;25.17;48.81;101926.59;4691885;30;21009;-89
2022/07/13 03:38:40;;;;;;;4.50;3.55;;;;;;;25.07;48.52;101918.06;4721345;30;20519;-90
2022/07/13 03:41:07;;;;;;;3.55;3.25;;;;;;;25.18;48.56;101922.91;4721660;30;20041;-91
2022/07/13 03:43:32;;;;;;;4.13;3.65;;;;;;;25.14;48.41;101919.81;4719156;30;20744;-90
2022/07/13 03:45:58;;;;;;;4.40;3.50;;;;;;;25.13;48.65;101923.44;4721118;30;20045;-90
2022/07/13 03:48:24;;;;;;;4.03;3.63;;;;;;;25.06;48.72;101919.91;4735575;30;20076;-89
2022/07/13 03:50:49;;;;;;;3.92;3.58;;;;;;;25.09;48.65;101924.84;4723043;30;20143;-90
2022/07/13 03:53:16;;;;;;;4.10;3.70;;;;;;;25.08;48.85;101917.06;4705622;30;20059;-89
2022/07/13 03:55:43;;;;;;;4.20;3.80;;;;;;;25.09;48.81;101914.19;4725574;30;20056;-89
2022/07/13 03:58:10;;;;;;;3.70;3.40;;;;;;;25.09;48.46;101908.03;4724259;30;20103;-89
2022/07/13 04:00:37;;;;;;;4.32;3.75;;;;;;;25.11;48.81;101919.34;4721622;30;20505;-89
2022/07/13 04:03:04;;;;;;;4.40;3.85;;;;;;;25.11;48.80;101916.66;4727155;30;20571;-89
2022/07/13 04:05:30;;;;;;;4.20;3.50;;;;;;;25.11;48.78;101906.81;4726964;30;20055;-89
2022/07/13 04:07:55;;;;;;;3.97;3.58;;;;;;;25.12;48.70;101905.00;4722626;30;20048;-89
2022/07/13 04:10:21;;;;;;;4.30;3.70;;;;;;;25.07;48.70;101904.75;4727041;30;20373;-89
2022/07/13 04:12:49;;;;;;;3.92;3.50;;;;;;;25.11;48.65;101916.66;4727068;30;20048;-90
2022/07/13 04:15:15;;;;;;;5.18;3.88;;;;;;;25.11;48.83;101914.00;4721487;30;20548;-89
2022/07/13 04:17:43;;;;;;;3.97;3.50;;;;;;;25.07;48.58;101918.06;4724211;30;20037;-89
2022/07/13 04:20:10;;;;;;;4.72;3.92;;;;;;;25.06;48.62;101914.56;4725277;30;20848;-90
2022/07/13 04:22:36;;;;;;;4.32;3.92;;;;;;;25.11;48.73;101911.34;4717604;30;20039;-90
2022/07/13 04:25:06;;;;;;;4.07;3.67;;;;;;;25.13;48.79;101911.97;4722543;30;20045;-90
2022/07/13 04:27:31;;;;;;;4.35;3.95;;;;;;;25.03;48.63;101906.97;4727092;30;20072;-90
2022/07/13 04:29:57;;;;;;;3.97;3.58;;;;;;;25.05;48.48;101904.94;4739769;30;20045;-90
2022/07/13 04:32:23;;;;;;;4.05;3.50;;;;;;;25.10;48.61;101901.69;4726936;30;20157;-89
2022/07/13 04:34:48;;;;;;;3.95;3.53;;;;;;;25.07;48.48;101888.75;4724496;30;20052;-88
2022/07/13 04:37:14;;;;;;;4.03;3.65;;;;;;;25.07;48.59;101902.91;4726657;30;21923;-89
2022/07/13 04:39:40;;;;;;;4.57;4.10;;;;;;;25.09;48.43;101892.88;4728414;30;20048;-89
2022/07/13 04:42:06;;;;;;;4.32;3.70;;;;;;;25.07;48.32;101894.06;4726120;30;20071;-88
2022/07/13 04:44:31;;;;;;;4.93;3.85;;;;;;;25.12;48.51;101889.00;4726296;30;20076;-88
2022/07/13 04:46:57;;;;;;;5.93;3.97;;;;;;;25.06;48.62;101879.94;4724351;30;20044;-89
2022/07/13 04:49:23;;;;;;;4.78;3.60;;;;;;;25.11;48.36;101890.00;4723892;30;20103;-88
2022/07/13 04:51:50;;;;;;;4.22;3.83;;;;;;;25.09;48.70;101884.88;4735953;30;20053;-88
2022/07/13 04:54:20;;;;;;;4.28;3.88;;;;;;;25.12;48.42;101875.66;4710606;30;20043;-88
2022/07/13 04:56:46;;;;;;;4.50;3.78;;;;;;;25.05;48.34;101875.63;4724086;30;20075;-88
2022/07/13 04:59:12;;;;;;;4.47;4.00;;;;;;;25.12;48.46;101873.84;4738262;30;20060;-88
2022/07/13 05:01:39;;;;;;;4.32;3.85;;;;;;;25.07;48.34;101872.75;4720579;30;20675;-88
2022/07/13 05:04:04;;;;;;;4.18;3.78;;;;;;;25.11;48.23;101879.34;4735070;30;20028;-90
2022/07/13 05:06:31;;;;;;;4.78;4.28;;;;;;;25.13;48.59;101870.16;4721305;30;21011;-88
2022/07/13 05:08:57;;;;;;;4.43;3.78;;;;;;;25.13;48.52;101880.81;4718546;30;20056;-88
2022/07/13 05:11:24;;;;;;;4.57;3.95;;;;;;;25.12;48.44;101886.34;4721319;30;20036;-89
2022/07/13 05:13:50;;;;;;;4.20;3.78;;;;;;;25.12;48.50;101884.50;4720180;30;20036;-88
2022/07/13 05:16:15;;;;;;;6.07;4.00;;;;;;;25.12;48.42;101886.34;4735066;30;20494;-89
2022/07/13 05:18:41;;;;;;;4.45;4.05;;;;;;;25.09;48.72;101876.88;4723530;30;20060;-90
2022/07/13 05:21:12;;;;;;;4.30;3.90;;;;;;;25.14;48.41;101882.50;4726285;30;20040;-90
2022/07/13 05:23:37;;;;;;;5.03;4.20;;;;;;;25.08;48.68;101880.56;4710622;30;20052;-89
2022/07/13 05:26:05;;;;;;;4.72;4.13;;;;;;;25.15;48.34;101881.47;4725353;30;20049;-89
2022/07/13 05:28:32;;;;;;;4.68;4.15;;;;;;;25.14;48.36;101881.66;4739302;30;20036;-90
2022/07/13 05:30:58;;;;;;;4.45;4.05;;;;;;;25.14;48.35;101877.16;4725756;30;20059;-89
2022/07/13 05:33:25;;;;;;;4.70;4.10;;;;;;;25.08;48.55;101883.22;4725223;30;20131;-90
2022/07/13 05:35:52;;;;;;;5.03;3.92;;;;;;;25.14;48.45;101889.66;4704321;30;20049;-89
2022/07/13 05:38:17;;;;;;;4.35;3.95;;;;;;;25.14;48.32;101893.16;4726486;30;20060;-84
2022/07/13 05:40:44;;;;;;;4.30;3.90;;;;;;;25.14;48.45;101890.47;4710571;30;20048;-84
2022/07/13 05:43:10;;;;;;;4.82;4.32;;;;;;;25.16;48.44;101884.97;4725479;30;20052;-84
2022/07/13 05:45:36;;;;;;;4.22;3.78;;;;;;;25.08;48.56;101880.56;4721720;30;20053;-84
2022/07/13 05:48:02;;;;;;;4.43;3.80;;;;;;;25.09;48.68;101884.88;4704133;30;20110;-84
2022/07/13 05:50:28;;;;;;;4.60;4.10;;;;;;;25.12;48.53;101883.66;4720936;30;20044;-84
2022/07/13 05:52:55;;;;;;;4.35;3.67;;;;;;;25.18;48.37;101889.09;4706574;30;20789;-85
2022/07/13 05:55:22;;;;;;;4.45;3.92;;;;;;;25.07;48.20;101880.75;4716677;30;20929;-83
2022/07/13 05:57:48;;;;;;;4.60;4.10;;;;;;;25.19;48.15;101889.91;4728189;30;20049;-85
2022/07/13 06:00:14;;;;;;;5.18;3.92;;;;;;;25.07;48.13;101886.91;4725141;30;20052;-84
2022/07/13 06:02:43;;;;;;;5.40;4.18;;;;;;;25.17;48.18;101887.44;4721427;30;20189;-85
2022/07/13 06:05:09;;;;;;;5.25;4.18;;;;;;;25.16;48.19;101888.44;4720712;30;20052;-85
2022/07/13 06:07:35;;;;;;;4.88;4.30;;;;;;;25.16;48.24;101895.63;4718611;30;20482;-84
2022/07/13 06:10:01;;;;;;;4.72;4.22;;;;;;;25.20;48.38;101895.06;4721296;30;20028;-85
2022/07/13 06:12:29;;;;;;;4.75;3.92;;;;;;;25.16;48.34;101896.44;4723478;30;20777;-85
2022/07/13 06:14:55;;;;;;;4.57;4.13;;;;;;;25.16;48.28;101893.78;4724406;30;20539;-85
2022/07/13 06:17:21;;;;;;;5.15;4.28;;;;;;;25.15;48.36;101896.63;4718907;30;20060;-87
2022/07/13 06:19:47;;;;;;;4.80;4.15;;;;;;;25.18;48.33;101890.94;4724504;30;20041;-86
2022/07/13 06:22:13;;;;;;;5.95;4.55;;;;;;;25.18;48.18;101893.59;4722348;30;20112;-85
2022/07/13 06:24:38;;;;;;;5.38;4.28;;;;;;;25.20;47.98;101888.91;4722688;30;20037;-84
2022/07/13 06:27:04;;;;;;;5.38;4.45;;;;;;;25.24;48.13;101896.31;4721074;30;21640;-85
2022/07/13 06:29:29;;;;;;;4.72;4.22;;;;;;;25.26;48.00;101893.44;4725325;30;20064;-85
2022/07/13 06:31:55;;;;;;;4.55;4.15;;;;;;;25.29;47.95;101896.56;4722048;30;20060;-88
2022/07/13 06:34:20;;;;;;;4.22;3.83;;;;;;;25.22;47.92;101886.84;4696104;30;20044;-87
2022/07/13 06:36:46;;;;;;;6.15;4.35;;;;;;;25.07;48.54;101902.06;4723507;30;20087;-83
2022/07/13 06:39:11;;;;;;;10.85;4.90;;;;;;;24.83;49.67;101903.22;4724936;30;20064;-86
2022/07/13 06:41:37;;;;;;;5.82;4.95;;;;;;;24.44;51.01;101898.22;4722815;30;20043;-86
2022/07/13 06:44:03;;;;;;;6.18;5.20;;;;;;;24.47;50.79;101900.50;4722086;30;20063;-85
2022/07/13 06:46:28;;;;;;;7.53;5.32;;;;;;;24.34;51.35;101888.66;4719575;30;20044;-86
2022/07/13 06:48:54;;;;;;;6.60;5.50;;;;;;;24.49;50.92;101883.34;4717073;30;20081;-85
2022/07/13 06:51:19;;;;;;;6.25;5.45;;;;;;;24.53;50.95;101883.78;4720749;30;20057;-85
2022/07/13 06:53:45;;;;;;;9.88;6.00;;;;;;;24.39;51.12;101874.78;4724731;30;20721;-84
2022/07/13 06:56:10;;;;;;;11.20;5.50;;;;;;;24.28;51.58;101875.25;4720434;30;20040;-82
2022/07/13 06:58:37;;;;;;;7.68;5.68;;;;;;;24.48;51.15;101871.03;4724058;30;20162;-84
2022/07/13 07:01:03;;;;;;;9.57;6.15;;;;;;;24.75;50.36;101858.84;4718587;30;20047;-83
2022/07/13 07:03:28;;;;;;;7.85;6.03;;;;;;;24.56;51.37;101867.44;4723402;30;20051;-83
2022/07/13 07:05:55;;;;;;;7.70;6.63;;;;;;;24.49;51.63;101864.69;4723398;30;20067;-83
2022/07/13 07:08:21;;;;;;;8.07;6.30;;;;;;;24.36;51.88;101861.84;4721775;30;20749;-83
2022/07/13 07:10:47;;;;;;;7.95;6.07;;;;;;;24.46;51.83;101859.75;4720086;30;20048;-83
2022/07/13 07:13:13;;;;;;;11.52;6.70;;;;;;;24.70;51.01;101858.59;4722960;30;22063;-83
2022/07/13 07:15:39;;;;;;;7.80;6.20;;;;;;;24.67;51.13;101862.47;4723923;30;20059;-84
2022/07/13 07:18:05;;;;;;;9.68;6.97;;;;;;;24.64;51.37;101862.03;4718777;30;20106;-84
2022/07/13 07:20:30;;;;;;;11.65;6.35;;;;;;;24.39;52.14;101870.28;4723371;30;20036;-84
2022/07/13 07:22:56;;;;;;;9.43;6.38;;;;;;;24.56;51.64;101872.75;4723770;30;20037;-86
2022/07/13 07:25:21;;;;;;;8.35;6.60;;;;;;;24.58;51.50;101878.72;4721852;30;20086;-85
2022/07/13 07:27:48;;;;;;;9.32;6.45;;;;;;;24.38;51.86;101870.47;4722921;30;20119;-84
2022/07/13 07:30:14;;;;;;;10.20;7.05;;;;;;;24.42;52.12;101863.81;4723837;30;20056;-85
2022/07/13 07:32:40;;;;;;;8.95;6.65;;;;;;;24.66;51.59;101881.28;4728208;30;20036;-85
2022/07/13 07:35:06;;;;;;;9.60;6.57;;;;;;;24.40;52.43;101879.09;4726593;30;20040;-85
2022/07/13 07:37:33;;;;;;;8.35;6.50;;;;;;;24.57;51.61;101869.91;4728026;30;20058;-86
2022/07/13 07:39:59;;;;;;;10.13;6.50;;;;;;;24.92;50.94;101868.25;4727321;30;20155;-86
2022/07/13 07:42:25;;;;;;;11.80;7.03;;;;;;;24.70;52.35;101874.56;4727830;30;20128;-86
2022/07/13 07:44:50;;;;;;;10.18;6.65;;;;;;;24.52;52.82;101866.97;4729343;30;20113;-86
2022/07/13 07:47:16;;;;;;;9.15;6.80;;;;;;;24.83;51.85;101865.91;4726125;30;20743;-87
2022/07/13 07:49:42;;;;;;;12.05;7.38;;;;;;;24.68;52.63;101872.09;4712494;30;20471;-88
2022/07/13 07:52:09;;;;;;;10.43;7.32;;;;;;;24.80;52.44;101869.78;4730951;30;20075;-86
2022/07/13 07:54:34;;;;;;;11.23;7.53;;;;;;;24.73;53.14;101862.72;4725680;30;20056;-86
2022/07/13 07:57:00;;;;;;;12.38;7.68;;;;;;;24.96;52.25;101858.09;4724187;30;20053;-86
2022/07/13 07:59:26;;;;;;;11.20;7.55;;;;;;;25.11;51.72;101858.84;4728180;30;20088;-88
2022/07/13 08:01:52;;;;;;;13.25;7.78;;;;;;;25.05;51.98;101845.47;4729556;30;20039;-87
2022/07/13 08:04:17;;;;;;;12.15;8.02;;;;;;;25.02;52.57;101861.84;4729447;30;20071;-87
2022/07/13 08:06:43;;;;;;;11.85;6.90;;;;;;;25.15;51.75;101860.16;4728128;30;20130;-87
2022/07/13 08:09:08;;;;;;;8.52;6.63;;;;;;;25.29;51.66;101861.91;4728129;30;20036;-87
2022/07/13 08:11:34;;;;;;;8.50;6.70;;;;;;;25.23;51.74;101856.53;4727586;30;20506;-86
2022/07/13 08:13:59;;;;;;;13.55;8.20;;;;;;;24.90;53.39;101859.63;4727043;30;20055;-86
2022/07/13 08:16:25;;;;;;;11.25;7.50;;;;;;;24.79;53.64;101852.16;4725933;30;20045;-85
2022/07/13 08:18:50;;;;;;;10.98;7.05;;;;;;;24.64;54.27;101854.03;4726322;30;20056;-86
2022/07/13 08:21:16;;;;;;;11.15;7.28;;;;;;;24.53;54.46;101857.97;4731281;30;20051;-86
2022/07/13 08:23:56;;;;;;;12.13;7.80;;;;;;;24.45;54.66;101836.81;4726438;30;20133;-87
2022/07/13 08:26:24;;;;;;;13.57;7.05;;;;;;;24.84;53.61;101859.56;4726420;30;20048;-86
2022/07/13 08:28:51;;;;;;;12.68;7.70;;;;;;;24.81;53.81;101858.13;4726135;30;20045;-86
2022/07/13 08:31:18;;;;;;;11.73;6.82;;;;;;;24.88;53.23;101859.00;4725868;30;20143;-86
2022/07/13 08:39:13;;;;;;;10.07;6.75;;;;;;;24.86;53.41;101853.03;4724893;30;20108;-90
2022/07/13 08:41:39;;;;;;;9.15;6.35;;;;;;;24.96;53.37;101842.09;4724190;30;20040;-89
2022/07/13 08:44:05;;;;;;;8.38;6.32;;;;;;;25.09;52.73;101855.56;4723125;30;20044;-89
2022/07/13 08:46:30;;;;;;;11.63;6.22;;;;;;;25.11;52.92;101861.53;4724512;30;20055;-89
2022/07/13 08:48:57;;;;;;;8.98;6.72;;;;;;;25.22;52.58;101857.53;4708848;30;20145;-89
2022/07/13 08:51:25;;;;;;;7.15;6.07;;;;;;;25.06;52.77;101847.13;4723101;30;20245;-88
2022/07/13 08:53:52;;;;;;;9.90;5.88;;;;;;;25.12;52.47;101844.50;4722098;30;20047;-89
2022/07/13 08:56:18;;;;;;;9.15;5.38;;;;;;;25.12;52.80;101849.00;4713347;30;20468;-88
2022/07/13 08:58:44;;;;;;;9.43;5.82;;;;;;;25.00;52.57;101852.22;4721511;30;20116;-91
2022/07/13 09:01:10;;;;;;;8.38;5.32;;;;;;;25.12;52.43;101851.69;4726192;30;20139;-89
2022/07/13 09:03:36;;;;;;;6.43;5.20;;;;;;;24.97;52.96;101855.22;4719684;30;20489;-88
2022/07/13 09:06:02;;;;;;;7.50;5.05;;;;;;;25.07;52.74;101859.44;4724124;30;20449;-88
2022/07/13 09:08:28;;;;;;;7.82;5.35;;;;;;;24.89;52.76;101858.00;4726205;30;20048;-89
2022/07/13 09:10:57;;;;;;;9.65;5.80;;;;;;;24.99;52.95;101860.38;4727179;30;20052;-88
2022/07/13 09:13:34;;;;;;;8.23;5.35;;;;;;;25.06;52.68;101853.28;4726078;30;20555;-89
2022/07/13 09:16:12;;;;;;;7.75;5.20;;;;;;;25.13;52.27;101856.81;4727759;30;20066;-88
2022/07/13 09:18:38;;;;;;;8.38;5.30;;;;;;;25.25;51.82;101849.16;4721448;30;20052;-85
2022/07/13 09:21:03;;;;;;;6.43;4.85;;;;;;;25.35;51.62;101855.00;4726668;30;20103;-85
2022/07/13 09:23:29;;;;;;;7.60;5.35;;;;;;;25.35;51.22;101847.00;4729290;30;20049;-85
2022/07/13 09:25:55;;;;;;;6.63;4.93;;;;;;;25.48;50.60;101859.59;4725569;30;20044;-84
2022/07/13 09:28:21;;;;;;;9.38;5.22;;;;;;;25.45;50.80;101854.66;4727970;30;20784;-85
2022/07/13 09:30:47;;;;;;;8.45;4.50;;;;;;;25.47;50.51;101852.63;4728507;30;20112;-84
2022/07/13 09:33:12;;;;;;;7.07;4.65;;;;;;;25.46;50.22;101854.47;4727933;30;20052;-85
2022/07/13 09:35:46;;;;;;;6.50;4.60;;;;;;;25.51;50.11;101860.06;4713045;30;20059;-85
2022/07/13 09:38:33;;;;;;;6.10;4.00;;;;;;;25.54;50.30;101869.50;4727969;30;20137;-84
2022/07/13 09:41:26;;;;;;;5.80;5.20;;;;;;;25.58;49.98;101868.09;4728640;30;20105;-84
2022/07/13 09:46:54;;;;;;;5.75;4.57;;;;;;;25.57;49.71;101880.63;4726869;30;20052;-84
2022/07/13 09:49:44;;;;;;;4.97;4.20;;;;;;;25.63;49.42;101888.84;4719749;30;20087;-85
2022/07/13 09:52:16;;;;;;;7.25;4.57;;;;;;;25.63;49.34;101884.34;4725552;30;20039;-84
2022/07/13 09:54:44;;;;;;;5.57;4.57;;;;;;;25.54;49.43;101873.00;4727840;30;20102;-89
2022/07/13 09:57:14;;;;;;;6.55;4.65;;;;;;;25.54;49.91;101877.53;4722232;30;20045;-89
2022/07/13 09:59:43;;;;;;;;;;;;;;;25.57;50.13;101893.97;4706072;30;20044;-85
2022/07/13 10:02:09;;;;;;;7.43;4.90;;;;;;;25.60;49.88;101885.56;4713145;30;19936;-85
2022/07/13 10:04:36;;;;;;;6.97;4.40;;;;;;;25.60;49.85;101887.41;4726984;30;20040;-85
2022/07/13 10:07:03;;;;;;;6.32;4.40;;;;;;;25.65;49.50;101892.16;4727743;30;20513;-86
2022/07/13 10:09:32;;;;;;;5.80;4.68;;;;;;;25.65;49.37;101890.31;4703185;30;20044;-85
2022/07/13 10:11:59;;;;;;;5.50;4.57;;;;;;;25.63;49.34;101895.00;4725181;30;20056;-86
2022/07/13 10:14:28;;;;;;;5.75;4.10;;;;;;;25.58;49.37;101882.25;4722783;30;20072;-86
2022/07/13 10:17:06;;;;;;;4.80;4.30;;;;;;;25.61;49.21;101887.22;4718345;30;20124;-86
2022/07/13 10:19:40;;;;;;;5.85;4.40;;;;;;;25.60;49.21;101893.56;4720020;30;20055;-85
2022/07/13 10:22:14;;;;;;;5.32;4.25;;;;;;;25.56;49.37;101886.16;4722354;30;20127;-85
2022/07/13 10:24:53;;;;;;;6.60;4.85;;;;;;;25.68;49.55;101903.31;4719266;30;20065;-86
2022/07/13 10:27:26;;;;;;;6.57;4.80;;;;;;;25.60;49.30;101900.75;4723468;30;20031;-85
2022/07/13 10:29:56;;;;;;;6.15;4.40;;;;;;;25.66;49.10;101905.28;4726143;30;20041;-85
2022/07/13 10:32:23;;;;;;;5.32;3.85;;;;;;;25.60;49.25;101911.41;4717082;30;20052;-85
2022/07/13 10:34:54;;;;;;;6.38;4.60;;;;;;;25.61;49.52;101903.22;4735760;30;21858;-84
2022/07/13 10:37:20;;;;;;;4.90;4.28;;;;;;;25.67;49.11;101911.47;4718266;30;20072;-84
2022/07/13 10:40:14;;;;;;;5.15;4.35;;;;;;;25.67;49.09;101911.47;4715495;30;20531;-84
2022/07/13 10:43:06;;;;;;;7.22;5.10;;;;;;;25.68;49.42;101894.50;4720886;30;20567;-86
2022/07/13 10:48:21;;;;;;;5.20;4.35;;;;;;;25.62;49.96;101914.72;4722262;30;20051;-89
2022/07/13 10:50:55;;;;;;;5.40;4.70;;;;;;;25.59;50.14;101891.09;4723139;30;20100;-90
2022/07/13 10:53:43;;;;;;;7.78;4.68;;;;;;;25.65;50.01;101908.16;4724648;30;20092;-90
2022/07/13 10:56:16;;;;;;;5.30;4.25;;;;;;;25.65;49.74;101906.31;4733916;29;20053;-89
2022/07/13 10:58:43;;;;;;;4.80;4.22;;;;;;;25.67;49.99;101909.63;4723441;30;20048;-89
2022/07/13 11:01:49;;;;;;;4.97;4.10;;;;;;;25.64;49.93;101910.00;4734905;30;20067;-89
2022/07/13 11:04:18;;;;;;;5.88;4.72;;;;;;;25.65;49.96;101910.81;4774929;29;20047;-90
2022/07/13 11:07:05;;;;;;;5.67;4.63;;;;;;;25.63;49.92;101919.03;4773549;29;20121;-90
2022/07/13 11:09:30;;;;;;;5.53;4.20;;;;;;;25.64;50.01;101922.50;4733068;30;20486;-89
2022/07/13 11:11:56;;;;;;;5.22;4.30;;;;;;;25.62;49.75;101920.03;4721663;30;20060;-89
2022/07/13 11:14:39;;;;;;;6.00;4.57;;;;;;;25.67;49.85;101936.28;4723909;30;20052;-90
2022/07/13 11:17:11;;;;;;;6.13;4.22;;;;;;;25.67;50.09;101935.47;4721825;30;20056;-88
2022/07/13 11:19:50;;;;;;;5.65;4.63;;;;;;;25.67;50.16;101935.47;4723955;30;21988;-87
2022/07/13 11:22:16;;;;;;;5.60;4.27;;;;;;;25.69;50.22;101926.31;4722686;30;20044;-91
2022/07/13 11:25:14;;;;;;;8.75;4.60;;;;;;;25.50;50.48;101933.09;4718727;30;20037;-87
2022/07/13 11:27:46;;;;;;;7.57;4.38;;;;;;;25.37;51.23;101942.78;4720076;30;20060;-87
2022/07/13 11:30:15;;;;;;;7.10;4.07;;;;;;;25.28;51.03;101931.41;4723371;30;20071;-87
2022/07/13 11:32:41;;;;;;;9.70;4.13;;;;;;;25.30;51.77;101938.19;4723362;30;20048;-89
2022/07/13 11:35:07;;;;;;;12.70;4.60;;;;;;;25.35;51.77;101939.50;4722830;30;20055;-88
2022/07/13 11:37:32;;;;;;;6.78;4.50;;;;;;;25.35;51.46;101937.66;4720558;30;20044;-87